Terminal Aerodrome Forecast
Issued by NWS Tulsa, OK

Home | Current Version | Previous Version | Text Only | Print | Product List | Glossary On
Versions: 1 2 3 4 5 6 7 8 9 10 11 12
000
FTUS44 KTSA 301700
TAFFSM
TAF
KFSM 301730Z 3018/0118 14007KT P6SM SCT060
     FM010000 16006KT P6SM SCT060 BKN120
     FM011600 18013KT P6SM SCT060 BKN120=

USA.gov is the U.S. government's official web portal to all federal, state and local government web resources and services.